Kezdőlap
METAR-TAF:

METAR-TAF

Repülőterek :

Kuvaitváros, Kuvait

földrajzi szélesség: 29-13N, földrajzi hosszúság: 047-59E, magasság: 55 m

Jelenlegi meteorológiai megfigyelések

A jelentés 21 perccel ezelõtt készült, 14:00 UTC
Délkeleti szél 8 kt
Hőmérséklet 38°C
Páratartalom 42%
Légköri nyomás 1005 hPa
Látótávolság: 7000 m

METAR: OKBK 191400Z 13008KT 7000 NSC 38/23 Q1005 NOSIG

Idő: 17:21 (14:21 UTC)

Előrejelzés

A jelentés 3 órával és 36 perccel ezelõtt készült, 10:45 UTC
Az előrejelzés 19-én 12 óra UTC és 20-én 18 óra UTC között érvényes
Kelet-délkeleti szél 10 kt
Látótávolság: 6000 m
19-én 18 óra UTC és 20-én 04 óra UTC között ideiglenes
Látótávolság: 2000 m
Párásság

TAF: OKBK 191045Z 1912/2018 12010KT 6000 NSC TEMPO 1918/2004 2000 BR

Meteorológiai megfigyelések és előrejelzések több, mint 4000 repülőtéren (METAR és TAF jelentéseket).

A térképen piros és sárga pontok jelzik az elérhető meteorológiai állomásokat.

Mozgassa az egeret a pont fölött, hogy megjelenjen az állomás neve.

Azután kattintson az időjárási megfigyelések és előrejelzések megtekintéséhez.

A térkép megváltoztatása: kattintson a fekete keresztel jelölt zöld gombra ráközelítéshez, a vonallal jelölt zöld gombra távolításhoz, vagy a zöld nyilakra a szomszédos térképek eléréséhez.


METAR-TAF: